Terminal Aerodrome Forecast
Issued by NWS Austin/San Antonio, TX

Home | Current Version | Previous Version | Text Only | Print | Product List | Glossary On
Versions: 1 2 3 4 5 6 7 8 9 10 11 12 13 14 15 16 17 18 19 20 21 22 23 24 25 26 27 28 29 30
924
FTUS44 KEWX 221720
TAFSAT
TAF
KSAT 221720Z 2218/2324 04008KT P6SM OVC015
     FM222100 05007KT P6SM OVC050
     FM230400 02005KT P6SM OVC015
     FM231000 VRB03KT 6SM BR OVC007
     FM231600 03006KT P6SM OVC015=

USA.gov is the U.S. government's official web portal to all federal, state and local government web resources and services.